Terminal Aerodrome Forecast
Issued by NWS Sterling, VA

Home | Current Version | Previous Version | Text Only | Print | Product List | Glossary On
Versions: 1 2 3 4 5 6 7 8 9 10 11 12 13 14
000
FTUS41 KLWX 280524
TAFCHO
TAF
KCHO 280524Z 2806/2906 00000KT P6SM BKN080
     FM281500 19004KT 6SM -SHRA VCTS OVC040CB
     FM282000 18004KT 3SM +SHRA VCTS OVC040CB
     FM290000 24004KT 3SM SHRA OVC035
     FM290500 VRB03KT 3SM SHRA OVC015=

USA.gov is the U.S. government's official web portal to all federal, state and local government web resources and services.